createdAt,value
2022-10-09T00:01:05.564Z,100254.22
2022-10-09T00:03:34.104Z,100274.13
2022-10-09T00:06:02.268Z,100268.72
2022-10-09T00:08:31.766Z,100267.16
2022-10-09T00:10:59.805Z,100268.16
2022-10-09T00:13:27.862Z,100256.56
2022-10-09T00:15:55.916Z,100271.16
2022-10-09T00:18:23.955Z,100258.06
2022-10-09T00:20:51.989Z,100276.91
2022-10-09T00:23:20.267Z,100276.69
2022-10-09T00:25:54.017Z,100277.72
2022-10-09T00:28:22.847Z,100258.28
2022-10-09T00:30:51.554Z,100262.31
2022-10-09T00:33:19.701Z,100267.38
2022-10-09T00:35:48.100Z,100286.94
2022-10-09T00:38:16.427Z,100278.16
2022-10-09T00:40:44.507Z,100266.88
2022-10-09T00:43:17.071Z,100268.94
2022-10-09T00:45:48.748Z,100286.88
2022-10-09T00:48:17.932Z,100297.50
2022-10-09T00:50:47.997Z,100292.75
2022-10-09T00:53:18.429Z,100313.63
2022-10-09T00:55:46.760Z,100306.09
2022-10-09T00:58:16.194Z,100294.34
2022-10-09T01:00:44.285Z,100289.31
2022-10-09T01:03:12.520Z,100286.94
2022-10-09T01:05:50.161Z,100285.44
2022-10-09T01:08:21.515Z,100286.22
2022-10-09T01:10:54.570Z,100299.94
2022-10-09T01:13:28.860Z,100302.88
2022-10-09T01:15:59.154Z,100310.28
2022-10-09T01:18:37.970Z,100308.47
2022-10-09T01:21:09.437Z,100308.97
2022-10-09T01:23:44.317Z,100313.47
2022-10-09T01:26:30.914Z,100315.81
2022-10-09T01:29:02.842Z,100334.50
2022-10-09T01:31:32.991Z,100334.47
2022-10-09T01:34:02.492Z,100325.09
2022-10-09T01:36:30.964Z,100317.69
2022-10-09T01:39:00.049Z,100320.94
2022-10-09T01:41:28.480Z,100320.81
2022-10-09T01:43:56.618Z,100322.66
2022-10-09T01:46:26.958Z,100319.22
2022-10-09T01:49:01.873Z,100322.69
2022-10-09T01:51:36.690Z,100323.13
2022-10-09T01:54:07.553Z,100334.06
2022-10-09T01:56:36.795Z,100339.66
2022-10-09T01:59:11.231Z,100336.44
2022-10-09T02:01:43.971Z,100339.50
2022-10-09T02:04:14.275Z,100346.50
2022-10-09T02:06:43.352Z,100349.44
2022-10-09T02:09:14.254Z,100354.09
2022-10-09T02:11:43.569Z,100349.13
2022-10-09T02:14:11.795Z,100348.34
2022-10-09T02:16:43.123Z,100353.97
2022-10-09T02:19:14.910Z,100361.34
2022-10-09T02:21:46.443Z,100371.06
2022-10-09T02:24:16.853Z,100368.31
2022-10-09T02:26:44.860Z,100374.38
2022-10-09T02:29:14.130Z,100379.53
2022-10-09T02:31:44.351Z,100374.69
2022-10-09T02:34:13.802Z,100383.94
2022-10-09T02:36:41.900Z,100388.59
2022-10-09T02:39:10.231Z,100393.72
2022-10-09T02:41:38.325Z,100406.41
2022-10-09T02:44:06.983Z,100387.69
2022-10-09T02:46:35.452Z,100391.81
2022-10-09T02:49:05.202Z,100394.41
2022-10-09T02:51:33.320Z,100404.16
2022-10-09T02:54:01.355Z,100407.03
2022-10-09T02:56:29.769Z,100395.94
2022-10-09T02:58:57.923Z,100396.19
2022-10-09T03:01:26.288Z,100402.25
2022-10-09T03:03:54.352Z,100407.03
2022-10-09T03:06:25.529Z,100403.66
2022-10-09T03:08:54.232Z,100406.31
2022-10-09T03:11:23.826Z,100405.25
2022-10-09T03:13:52.147Z,100413.66
2022-10-09T03:16:22.171Z,100414.59
2022-10-09T03:18:50.848Z,100405.81
2022-10-09T03:21:20.585Z,100408.91
2022-10-09T03:23:50.288Z,100407.41
2022-10-09T03:26:19.641Z,100417.31
2022-10-09T03:28:49.200Z,100415.09
2022-10-09T03:31:33.353Z,100418.44
2022-10-09T03:34:05.883Z,100420.25
2022-10-09T03:36:33.859Z,100422.78
2022-10-09T03:39:03.249Z,100433.56
2022-10-09T03:41:31.271Z,100433.44
2022-10-09T03:43:59.427Z,100421.97
2022-10-09T03:46:27.532Z,100434.53
2022-10-09T03:48:55.575Z,100444.00
2022-10-09T03:51:23.597Z,100422.56
2022-10-09T03:53:51.632Z,100436.25
2022-10-09T03:56:21.045Z,100434.41
2022-10-09T03:58:49.006Z,100439.75
2022-10-09T04:01:17.118Z,100427.94
2022-10-09T04:03:45.154Z,100424.81
2022-10-09T04:06:13.357Z,100440.91
2022-10-09T04:08:41.418Z,100425.38
2022-10-09T04:11:09.509Z,100441.19
2022-10-09T04:13:38.901Z,100429.34
2022-10-09T04:16:09.616Z,100436.69
2022-10-09T04:18:37.667Z,100425.22
2022-10-09T04:21:05.665Z,100430.47
2022-10-09T04:23:33.658Z,100426.09
2022-10-09T04:26:01.878Z,100445.56
2022-10-09T04:28:30.737Z,100438.66
2022-10-09T04:31:00.397Z,100435.00
2022-10-09T04:33:28.751Z,100432.03
2022-10-09T04:35:57.139Z,100432.84
2022-10-09T04:38:25.906Z,100441.78
2022-10-09T04:40:57.695Z,100437.38
2022-10-09T04:43:25.718Z,100443.56
2022-10-09T04:45:53.882Z,100451.34
2022-10-09T04:48:23.624Z,100448.66
2022-10-09T04:50:51.780Z,100448.94
2022-10-09T04:53:19.793Z,100458.16
2022-10-09T04:55:47.836Z,100450.22
2022-10-09T04:58:15.876Z,100454.53
2022-10-09T05:00:45.298Z,100455.31
2022-10-09T05:03:13.720Z,100444.31
2022-10-09T05:05:43.098Z,100454.16
2022-10-09T05:08:11.122Z,100454.00
2022-10-09T05:10:39.140Z,100448.50
2022-10-09T05:13:07.178Z,100451.31
2022-10-09T05:15:37.731Z,100455.53
2022-10-09T05:18:06.012Z,100442.28
2022-10-09T05:20:34.019Z,100463.44
2022-10-09T05:23:03.372Z,100463.84
2022-10-09T05:25:31.401Z,100456.94
2022-10-09T05:28:00.349Z,100477.84
2022-10-09T05:30:28.412Z,100472.91
2022-10-09T05:32:56.410Z,100471.03
2022-10-09T05:35:24.404Z,100476.78
2022-10-09T05:37:52.493Z,100476.78
2022-10-09T05:40:25.780Z,100468.88
2022-10-09T05:42:56.406Z,100480.66
2022-10-09T05:45:24.622Z,100473.66
2022-10-09T05:47:52.588Z,100476.38
2022-10-09T05:50:20.624Z,100474.94
2022-10-09T05:52:48.845Z,100490.72
2022-10-09T05:55:17.190Z,100487.66
2022-10-09T05:57:46.584Z,100494.63
2022-10-09T06:00:15.420Z,100495.47
2022-10-09T06:02:43.573Z,100499.56
2022-10-09T06:05:11.673Z,100511.13
2022-10-09T06:07:39.740Z,100507.59
2022-10-09T06:10:08.227Z,100504.97
2022-10-09T06:12:36.273Z,100511.81
2022-10-09T06:15:06.092Z,100507.13
2022-10-09T06:17:34.741Z,100520.41
2022-10-09T06:20:02.798Z,100519.03
2022-10-09T06:22:30.826Z,100526.88
2022-10-09T06:24:58.874Z,100534.00
2022-10-09T06:27:26.869Z,100537.22
2022-10-09T06:29:56.042Z,100535.81
2022-10-09T06:32:25.481Z,100537.41
2022-10-09T06:34:53.599Z,100545.53
2022-10-09T06:37:21.631Z,100545.53
2022-10-09T06:39:49.680Z,100546.03
2022-10-09T06:42:17.733Z,100549.78
2022-10-09T06:44:52.451Z,100554.75
2022-10-09T06:47:20.475Z,100556.59
2022-10-09T06:49:49.921Z,100557.31
2022-10-09T06:52:18.143Z,100556.59
2022-10-09T06:54:46.221Z,100552.97
2022-10-09T06:57:14.306Z,100549.72
2022-10-09T06:59:42.357Z,100553.00
2022-10-09T07:02:10.601Z,100553.56
2022-10-09T07:04:38.622Z,100561.19
2022-10-09T07:07:08.052Z,100554.41
2022-10-09T07:09:36.148Z,100559.47
2022-10-09T07:12:04.174Z,100553.66
2022-10-09T07:14:32.255Z,100560.38
2022-10-09T07:17:00.289Z,100563.44
2022-10-09T07:19:28.292Z,100572.47
2022-10-09T07:21:56.346Z,100576.16
2022-10-09T07:24:25.770Z,100581.06
2022-10-09T07:26:55.464Z,100575.84
2022-10-09T07:29:23.593Z,100571.94
2022-10-09T07:31:51.596Z,100586.38
2022-10-09T07:34:19.604Z,100585.03
2022-10-09T07:36:47.647Z,100586.25
2022-10-09T07:39:15.714Z,100593.47
2022-10-09T07:41:45.157Z,100589.94
2022-10-09T07:44:13.159Z,100587.53
2022-10-09T07:46:41.283Z,100596.00
2022-10-09T07:49:09.338Z,100587.50
2022-10-09T07:51:37.401Z,100590.34
2022-10-09T07:54:05.888Z,100587.50
2022-10-09T07:56:36.136Z,100582.88
2022-10-09T07:59:07.028Z,100578.63
2022-10-09T08:01:36.615Z,100587.09
2022-10-09T08:04:05.499Z,100584.66
2022-10-09T08:06:34.070Z,100582.00
2022-10-09T08:09:03.329Z,100583.44
2022-10-09T08:11:31.845Z,100590.06
2022-10-09T08:13:59.940Z,100597.28
2022-10-09T08:16:29.732Z,100591.19
2022-10-09T08:18:59.543Z,100583.28
2022-10-09T08:21:29.164Z,100585.84
2022-10-09T08:23:58.882Z,100579.03
2022-10-09T08:26:28.220Z,100595.56
2022-10-09T08:28:57.571Z,100597.38
2022-10-09T08:31:26.186Z,100604.16
2022-10-09T08:33:56.541Z,100599.47
2022-10-09T08:36:24.868Z,100606.53
2022-10-09T08:38:53.282Z,100611.16
2022-10-09T08:41:28.209Z,100607.72
2022-10-09T08:44:04.745Z,100619.00
2022-10-09T08:46:36.654Z,100616.78
2022-10-09T08:49:06.380Z,100607.81
2022-10-09T08:51:37.590Z,100610.34
2022-10-09T08:54:07.841Z,100601.25
2022-10-09T08:56:36.491Z,100606.09
2022-10-09T08:59:04.508Z,100606.81
2022-10-09T09:01:36.657Z,100609.44
2022-10-09T09:04:23.519Z,100608.19
2022-10-09T09:06:58.295Z,100602.44
2022-10-09T09:09:32.795Z,100617.41
2022-10-09T09:12:05.601Z,100613.91
2022-10-09T09:14:47.543Z,100608.72
2022-10-09T09:17:20.557Z,100611.91
2022-10-09T09:19:57.952Z,100603.66
2022-10-09T09:22:27.091Z,100612.19
2022-10-09T09:24:57.451Z,100604.63
2022-10-09T09:27:29.115Z,100602.78
2022-10-09T09:30:00.473Z,100603.72
2022-10-09T09:32:30.763Z,100596.81
2022-10-09T09:35:04.759Z,100603.44
2022-10-09T09:37:32.866Z,100601.50
2022-10-09T09:42:49.516Z,100586.63
2022-10-09T09:45:20.370Z,100594.00
2022-10-09T09:47:51.231Z,100583.34
2022-10-09T09:50:47.107Z,100594.13
2022-10-09T09:53:27.011Z,100588.69
2022-10-09T09:55:56.030Z,100587.56
2022-10-09T09:58:24.363Z,100592.84
2022-10-09T10:00:56.222Z,100586.44
2022-10-09T10:03:25.500Z,100593.44
2022-10-09T10:05:55.060Z,100588.22
2022-10-09T10:08:25.269Z,100590.66
2022-10-09T10:10:54.516Z,100578.25
2022-10-09T10:13:24.481Z,100575.59
2022-10-09T10:15:55.071Z,100575.66
2022-10-09T10:18:24.381Z,100574.69
2022-10-09T10:20:55.790Z,100578.25
2022-10-09T10:23:33.351Z,100574.06
2022-10-09T10:26:04.436Z,100578.63
2022-10-09T10:28:36.512Z,100565.97
2022-10-09T10:31:07.346Z,100569.75
2022-10-09T10:33:37.751Z,100564.66
2022-10-09T10:36:10.001Z,100561.66
2022-10-09T10:38:42.147Z,100550.94
2022-10-09T10:41:13.372Z,100556.41
2022-10-09T10:43:44.002Z,100556.88
2022-10-09T10:46:18.820Z,100545.94
2022-10-09T10:48:48.167Z,100547.50
2022-10-09T10:51:35.023Z,100543.59
2022-10-09T10:54:14.655Z,100552.19
2022-10-09T10:56:46.820Z,100551.47
2022-10-09T10:59:30.703Z,100552.75
2022-10-09T11:02:22.228Z,100536.97
2022-10-09T11:04:56.569Z,100545.59
2022-10-09T11:07:32.385Z,100541.78
2022-10-09T11:10:08.678Z,100536.91
2022-10-09T11:12:57.776Z,100530.22
2022-10-09T11:15:34.303Z,100532.09
2022-10-09T11:18:10.313Z,100536.72
2022-10-09T11:20:49.897Z,100529.97
2022-10-09T11:23:27.953Z,100518.91
2022-10-09T11:26:00.259Z,100521.50
2022-10-09T11:28:30.043Z,100522.06
2022-10-09T11:31:02.797Z,100518.22
2022-10-09T11:33:35.332Z,100507.38
2022-10-09T11:36:06.809Z,100503.66
2022-10-09T11:38:38.469Z,100499.94
2022-10-09T11:41:07.690Z,100488.28
2022-10-09T11:43:47.787Z,100492.00
2022-10-09T11:46:22.730Z,100490.78
2022-10-09T11:48:56.170Z,100487.59
2022-10-09T11:51:30.773Z,100484.72
2022-10-09T11:54:00.610Z,100481.06
2022-10-09T11:56:30.659Z,100482.97
2022-10-09T11:59:00.299Z,100478.88
2022-10-09T12:01:32.923Z,100476.06
2022-10-09T12:04:03.737Z,100475.69
2022-10-09T12:06:32.110Z,100463.75
2022-10-09T12:09:05.178Z,100458.97
2022-10-09T12:11:33.818Z,100457.59
2022-10-09T12:14:04.404Z,100459.16
2022-10-09T12:16:38.488Z,100455.63
2022-10-09T12:19:16.952Z,100448.56
2022-10-09T12:21:50.172Z,100450.78
2022-10-09T12:24:23.051Z,100463.63
2022-10-09T12:26:52.511Z,100460.28
2022-10-09T12:29:25.946Z,100453.72
2022-10-09T12:31:57.148Z,100445.31
2022-10-09T12:34:27.101Z,100437.38
2022-10-09T12:37:13.834Z,100432.34
2022-10-09T12:39:43.942Z,100426.09
2022-10-09T12:42:19.464Z,100435.34
2022-10-09T12:44:48.078Z,100434.13
2022-10-09T12:47:20.037Z,100416.63
2022-10-09T12:50:01.962Z,100415.00
2022-10-09T12:52:31.580Z,100415.72
2022-10-09T12:55:02.619Z,100421.09
2022-10-09T12:57:30.832Z,100412.34
2022-10-09T12:59:59.209Z,100412.25
2022-10-09T13:02:27.381Z,100424.56
2022-10-09T13:04:58.244Z,100414.53
2022-10-09T13:07:29.220Z,100414.09
2022-10-09T13:10:05.347Z,100414.59
2022-10-09T13:12:33.849Z,100415.28
2022-10-09T13:15:03.388Z,100402.63
2022-10-09T13:17:34.230Z,100406.63
2022-10-09T13:20:05.438Z,100393.88
2022-10-09T13:22:35.960Z,100394.44
2022-10-09T13:25:06.774Z,100391.03
2022-10-09T13:27:39.817Z,100392.53
2022-10-09T13:30:11.748Z,100394.94
2022-10-09T13:32:39.810Z,100388.50
2022-10-09T13:35:08.300Z,100385.09
2022-10-09T13:37:36.327Z,100388.03
2022-10-09T13:40:06.882Z,100383.34
2022-10-09T13:42:37.648Z,100378.19
2022-10-09T13:45:06.126Z,100371.28
2022-10-09T13:47:34.215Z,100381.06
2022-10-09T13:50:02.286Z,100377.34
2022-10-09T13:52:30.358Z,100371.44
2022-10-09T13:54:58.438Z,100369.09
2022-10-09T13:57:27.886Z,100359.50
2022-10-09T13:59:55.913Z,100365.38
2022-10-09T14:02:23.940Z,100363.53
2022-10-09T14:04:51.990Z,100366.72
2022-10-09T14:07:20.051Z,100353.69
2022-10-09T14:09:48.087Z,100359.81
2022-10-09T14:12:16.127Z,100355.38
2022-10-09T14:14:45.532Z,100350.63
2022-10-09T14:17:13.526Z,100356.50
2022-10-09T14:19:41.533Z,100347.88
2022-10-09T14:22:09.571Z,100352.28
2022-10-09T14:24:38.199Z,100354.13
2022-10-09T14:27:06.285Z,100341.19
2022-10-09T14:29:34.402Z,100338.66
2022-10-09T14:32:03.856Z,100336.47
2022-10-09T14:34:31.894Z,100341.03
2022-10-09T14:37:00.008Z,100338.91
2022-10-09T14:39:28.067Z,100327.09
2022-10-09T14:41:56.147Z,100336.38
2022-10-09T14:44:24.934Z,100332.75
2022-10-09T14:46:52.968Z,100333.41
2022-10-09T14:49:22.357Z,100322.63
2022-10-09T14:51:50.410Z,100320.78
2022-10-09T14:54:18.482Z,100321.97
2022-10-09T14:56:46.559Z,100323.72
2022-10-09T14:59:14.694Z,100321.47
2022-10-09T15:01:42.728Z,100323.28
2022-10-09T15:04:10.799Z,100320.31
2022-10-09T15:06:40.197Z,100318.34
2022-10-09T15:09:08.281Z,100321.00
2022-10-09T15:11:36.925Z,100307.97
2022-10-09T15:14:05.817Z,100307.47
2022-10-09T15:16:34.067Z,100311.25
2022-10-09T15:19:02.161Z,100304.47
2022-10-09T15:21:31.849Z,100303.31
2022-10-09T15:24:02.354Z,100309.25
2022-10-09T15:26:32.924Z,100303.84
2022-10-09T15:29:02.774Z,100303.44
2022-10-09T15:31:32.155Z,100311.69
2022-10-09T15:34:02.179Z,100309.69
2022-10-09T15:36:32.475Z,100307.84
2022-10-09T15:39:05.696Z,100306.78
2022-10-09T15:41:35.688Z,100306.72
2022-10-09T15:44:05.655Z,100303.75
2022-10-09T15:46:33.898Z,100311.03
2022-10-09T15:49:01.952Z,100310.63
2022-10-09T15:51:33.130Z,100310.00
2022-10-09T15:54:02.841Z,100310.38
2022-10-09T15:56:31.763Z,100312.69
2022-10-09T15:59:01.904Z,100310.41
2022-10-09T16:01:32.945Z,100304.75
2022-10-09T16:04:01.114Z,100311.25
2022-10-09T16:06:29.174Z,100305.06
2022-10-09T16:08:57.786Z,100312.91
2022-10-09T16:11:27.253Z,100313.38
2022-10-09T16:13:56.566Z,100322.44
2022-10-09T16:16:27.653Z,100316.06
2022-10-09T16:18:56.798Z,100319.19
2022-10-09T16:21:26.586Z,100322.03
2022-10-09T16:23:58.742Z,100321.47
2022-10-09T16:26:30.549Z,100321.47
2022-10-09T16:29:00.677Z,100314.34
2022-10-09T16:31:31.361Z,100320.81
2022-10-09T16:33:59.787Z,100319.38
2022-10-09T16:36:29.088Z,100316.38
2022-10-09T16:38:57.306Z,100321.91
2022-10-09T16:41:25.743Z,100328.91
2022-10-09T16:43:57.320Z,100323.28
2022-10-09T16:46:27.057Z,100320.38
2022-10-09T16:48:56.265Z,100323.50
2022-10-09T16:51:25.921Z,100328.50
2022-10-09T16:53:55.519Z,100326.31
2022-10-09T16:56:25.080Z,100327.19
2022-10-09T16:58:57.493Z,100331.66
2022-10-09T17:01:25.937Z,100315.06
2022-10-09T17:03:55.172Z,100323.72
2022-10-09T17:06:24.630Z,100327.09
2022-10-09T17:08:53.449Z,100323.63
2022-10-09T17:11:22.743Z,100323.41
2022-10-09T17:13:51.467Z,100328.09
2022-10-09T17:16:25.609Z,100334.75
2022-10-09T17:18:54.396Z,100333.91
2022-10-09T17:21:23.214Z,100329.09
2022-10-09T17:23:55.101Z,100325.09
2022-10-09T17:26:24.891Z,100324.50
2022-10-09T17:28:54.074Z,100325.47
2022-10-09T17:31:25.573Z,100322.69
2022-10-09T17:33:56.508Z,100325.38
2022-10-09T17:36:28.696Z,100319.25
2022-10-09T17:38:57.770Z,100315.03
2022-10-09T17:41:28.058Z,100319.84
2022-10-09T17:43:58.140Z,100315.47
2022-10-09T17:46:29.243Z,100309.63
2022-10-09T17:48:58.863Z,100314.94
2022-10-09T17:51:28.653Z,100311.47
2022-10-09T17:53:59.591Z,100304.09
2022-10-09T17:56:27.786Z,100318.63
2022-10-09T17:58:57.265Z,100303.84
2022-10-09T18:01:27.444Z,100304.94
2022-10-09T18:03:56.073Z,100313.00
2022-10-09T18:06:25.371Z,100311.16
2022-10-09T18:08:55.938Z,100318.91
2022-10-09T18:11:27.038Z,100316.97
2022-10-09T18:13:55.540Z,100313.28
2022-10-09T18:16:34.934Z,100314.03
2022-10-09T18:19:09.037Z,100318.59
2022-10-09T18:21:40.448Z,100313.44
2022-10-09T18:24:09.399Z,100313.34
2022-10-09T18:26:39.045Z,100310.75
2022-10-09T18:29:11.514Z,100309.25
2022-10-09T18:31:40.018Z,100312.94
2022-10-09T18:34:11.819Z,100311.63
2022-10-09T18:36:40.539Z,100314.06
2022-10-09T18:39:10.721Z,100306.34
2022-10-09T18:41:40.097Z,100307.50
2022-10-09T18:44:12.911Z,100305.78
2022-10-09T18:46:45.093Z,100301.13
2022-10-09T18:49:18.294Z,100299.31
2022-10-09T18:51:47.481Z,100307.72
2022-10-09T18:54:18.672Z,100300.09
2022-10-09T18:56:48.403Z,100305.41
2022-10-09T18:59:20.658Z,100293.88
2022-10-09T19:01:49.144Z,100290.75
2022-10-09T19:04:19.923Z,100291.03
2022-10-09T19:06:48.773Z,100294.44
2022-10-09T19:09:17.132Z,100291.75
2022-10-09T19:11:45.738Z,100300.19
2022-10-09T19:14:15.827Z,100299.16
2022-10-09T19:16:43.919Z,100298.13
2022-10-09T19:19:13.109Z,100305.91
2022-10-09T19:21:44.040Z,100306.84
2022-10-09T19:24:12.808Z,100300.94
2022-10-09T19:26:41.942Z,100303.75
2022-10-09T19:29:10.337Z,100307.63
2022-10-09T19:31:38.672Z,100305.06
2022-10-09T19:34:07.150Z,100302.41
2022-10-09T19:36:36.879Z,100293.50
2022-10-09T19:39:08.589Z,100292.69
2022-10-09T19:41:37.843Z,100299.28
2022-10-09T19:44:06.459Z,100296.03
2022-10-09T19:46:37.544Z,100296.31
2022-10-09T19:49:06.635Z,100300.25
2022-10-09T19:51:37.051Z,100303.88
2022-10-09T19:54:08.231Z,100302.22
2022-10-09T19:56:37.616Z,100299.63
2022-10-09T19:59:09.364Z,100290.44
2022-10-09T20:01:40.183Z,100287.22
2022-10-09T20:04:10.220Z,100285.97
2022-10-09T20:06:39.763Z,100285.13
2022-10-09T20:09:11.893Z,100292.88
2022-10-09T20:11:40.081Z,100299.69
2022-10-09T20:14:09.317Z,100287.50
2022-10-09T20:16:37.798Z,100289.50
2022-10-09T20:19:06.790Z,100285.84
2022-10-09T20:21:35.300Z,100287.25
2022-10-09T20:24:03.714Z,100277.94
2022-10-09T20:26:33.288Z,100287.16
2022-10-09T20:29:01.379Z,100286.16
2022-10-09T20:31:30.314Z,100281.50
2022-10-09T20:33:59.582Z,100282.19
2022-10-09T20:36:30.104Z,100287.84
2022-10-09T20:38:58.799Z,100292.34
2022-10-09T20:41:28.609Z,100291.06
2022-10-09T20:44:00.348Z,100289.69
2022-10-09T20:46:29.626Z,100285.47
2022-10-09T20:48:57.966Z,100286.31
2022-10-09T20:51:26.347Z,100277.97
2022-10-09T20:53:55.951Z,100278.25
2022-10-09T20:56:25.552Z,100283.91
2022-10-09T20:58:53.990Z,100281.66
2022-10-09T21:01:23.507Z,100272.47
2022-10-09T21:03:51.899Z,100267.53
2022-10-09T21:06:21.656Z,100273.31
2022-10-09T21:08:49.881Z,100277.84
2022-10-09T21:11:18.685Z,100270.09
2022-10-09T21:13:47.754Z,100275.00
2022-10-09T21:16:18.917Z,100269.19
2022-10-09T21:18:48.496Z,100272.06
2022-10-09T21:21:19.220Z,100268.22
2022-10-09T21:23:47.387Z,100268.97
2022-10-09T21:26:16.393Z,100262.69
2022-10-09T21:28:45.203Z,100264.94
2022-10-09T21:31:16.348Z,100254.56
2022-10-09T21:33:44.549Z,100258.19
2022-10-09T21:36:33.793Z,100255.50
2022-10-09T21:39:01.895Z,100254.41
2022-10-09T21:41:29.977Z,100252.69
2022-10-09T21:43:58.009Z,100265.09
2022-10-09T21:46:26.125Z,100253.38
2022-10-09T21:48:54.416Z,100256.91
2022-10-09T21:51:23.853Z,100255.50
2022-10-09T21:53:53.509Z,100256.59
2022-10-09T21:56:21.982Z,100252.66
2022-10-09T21:58:50.376Z,100255.09
2022-10-09T22:01:18.843Z,100257.19
2022-10-09T22:03:47.114Z,100259.16
2022-10-09T22:06:19.069Z,100254.63
2022-10-09T22:08:49.004Z,100251.31
2022-10-09T22:11:17.454Z,100242.13
2022-10-09T22:13:45.551Z,100249.31
2022-10-09T22:16:15.150Z,100251.97
2022-10-09T22:18:43.267Z,100249.00
2022-10-09T22:21:12.948Z,100248.75
2022-10-09T22:23:41.316Z,100252.53
2022-10-09T22:26:13.838Z,100252.09
2022-10-09T22:28:42.121Z,100248.03
2022-10-09T22:31:13.622Z,100244.78
2022-10-09T22:33:42.243Z,100241.84
2022-10-09T22:36:12.018Z,100242.38
2022-10-09T22:38:40.533Z,100242.81
2022-10-09T22:41:12.122Z,100234.38
2022-10-09T22:43:42.085Z,100242.38
2022-10-09T22:46:11.687Z,100245.06
2022-10-09T22:48:40.390Z,100240.25
2022-10-09T22:51:12.941Z,100243.66
2022-10-09T22:53:41.908Z,100243.38
2022-10-09T22:56:14.669Z,100240.84
2022-10-09T22:58:42.746Z,100245.16
2022-10-09T23:01:13.587Z,100244.28
2022-10-09T23:03:41.673Z,100246.63
2022-10-09T23:06:10.562Z,100247.56
2022-10-09T23:08:39.526Z,100245.31
2022-10-09T23:11:07.958Z,100242.88
2022-10-09T23:13:37.603Z,100234.91
2022-10-09T23:16:08.167Z,100236.72
2022-10-09T23:18:37.241Z,100240.56
2022-10-09T23:21:06.263Z,100232.47
2022-10-09T23:23:34.695Z,100238.25
2022-10-09T23:26:05.124Z,100237.22
2022-10-09T23:28:33.391Z,100233.31
2022-10-09T23:31:03.519Z,100236.94
2022-10-09T23:33:31.610Z,100234.94
2022-10-09T23:35:59.726Z,100227.13
2022-10-09T23:38:27.783Z,100237.38
2022-10-09T23:40:57.101Z,100224.16
2022-10-09T23:43:25.276Z,100234.13
2022-10-09T23:45:55.778Z,100231.34
2022-10-09T23:48:25.389Z,100226.50
2022-10-09T23:50:54.380Z,100224.19
2022-10-09T23:53:23.569Z,100222.25
2022-10-09T23:55:51.715Z,100222.69
2022-10-09T23:58:21.158Z,100213.56
